sensor_id;sensor_type;location;lat;lon;timestamp;P1;durP1;ratioP1;P2;durP2;ratioP2
49800;SDS011;35698;50.232;30.540;2022-08-05T00:00:11;17.08;;;10.66;;
49800;SDS011;35698;50.232;30.540;2022-08-05T00:01:33;17.04;;;9.53;;
49800;SDS011;35698;50.232;30.540;2022-08-05T00:02:39;15.99;;;9.99;;
49800;SDS011;35698;50.232;30.540;2022-08-05T00:03:50;15.83;;;9.85;;
49800;SDS011;35698;50.232;30.540;2022-08-05T00:04:53;12.31;;;10.64;;
49800;SDS011;35698;50.232;30.540;2022-08-05T00:07:38;14.28;;;11.04;;
49800;SDS011;35698;50.232;30.540;2022-08-05T00:08:52;15.30;;;9.71;;
49800;SDS011;35698;50.232;30.540;2022-08-05T00:09:56;15.90;;;9.91;;
49800;SDS011;35698;50.232;30.540;2022-08-05T00:11:17;17.23;;;11.08;;
49800;SDS011;35698;50.232;30.540;2022-08-05T00:12:22;16.78;;;11.88;;
49800;SDS011;35698;50.232;30.540;2022-08-05T00:13:34;22.29;;;12.05;;
49800;SDS011;35698;50.232;30.540;2022-08-05T00:14:41;14.09;;;10.38;;
49800;SDS011;35698;50.232;30.540;2022-08-05T00:16:02;13.38;;;10.36;;
49800;SDS011;35698;50.232;30.540;2022-08-05T00:17:21;21.44;;;11.67;;
49800;SDS011;35698;50.232;30.540;2022-08-05T00:18:26;21.12;;;12.54;;
49800;SDS011;35698;50.232;30.540;2022-08-05T00:20:54;18.48;;;11.08;;
49800;SDS011;35698;50.232;30.540;2022-08-05T00:21:58;19.61;;;10.57;;
49800;SDS011;35698;50.232;30.540;2022-08-05T00:23:09;15.97;;;10.36;;
49800;SDS011;35698;50.232;30.540;2022-08-05T00:24:14;20.12;;;9.96;;
49800;SDS011;35698;50.232;30.540;2022-08-05T00:25:36;14.27;;;9.98;;
49800;SDS011;35698;50.232;30.540;2022-08-05T00:26:41;14.64;;;10.13;;
49800;SDS011;35698;50.232;30.540;2022-08-05T00:28:12;16.08;;;10.76;;
49800;SDS011;35698;50.232;30.540;2022-08-05T00:29:16;17.08;;;11.62;;
49800;SDS011;35698;50.232;30.540;2022-08-05T00:30:37;18.73;;;11.29;;
49800;SDS011;35698;50.232;30.540;2022-08-05T00:31:48;15.67;;;10.90;;
49800;SDS011;35698;50.232;30.540;2022-08-05T00:32:53;15.06;;;11.37;;
49800;SDS011;35698;50.232;30.540;2022-08-05T00:34:15;17.00;;;12.47;;
49800;SDS011;35698;50.232;30.540;2022-08-05T00:35:26;16.11;;;10.56;;
49800;SDS011;35698;50.232;30.540;2022-08-05T00:36:31;18.33;;;10.91;;
49800;SDS011;35698;50.232;30.540;2022-08-05T00:37:53;18.42;;;10.95;;
49800;SDS011;35698;50.232;30.540;2022-08-05T00:39:07;13.12;;;10.96;;
49800;SDS011;35698;50.232;30.540;2022-08-05T00:40:13;19.12;;;11.42;;
49800;SDS011;35698;50.232;30.540;2022-08-05T00:41:35;12.62;;;10.08;;
49800;SDS011;35698;50.232;30.540;2022-08-05T00:42:40;16.48;;;10.73;;
49800;SDS011;35698;50.232;30.540;2022-08-05T00:43:52;19.64;;;12.26;;
49800;SDS011;35698;50.232;30.540;2022-08-05T00:44:55;17.02;;;10.94;;
49800;SDS011;35698;50.232;30.540;2022-08-05T00:46:17;18.47;;;10.48;;
49800;SDS011;35698;50.232;30.540;2022-08-05T00:47:23;16.92;;;11.64;;
49800;SDS011;35698;50.232;30.540;2022-08-05T00:48:37;18.13;;;11.04;;
49800;SDS011;35698;50.232;30.540;2022-08-05T00:49:42;21.92;;;11.14;;
49800;SDS011;35698;50.232;30.540;2022-08-05T00:51:04;13.79;;;10.83;;
49800;SDS011;35698;50.232;30.540;2022-08-05T00:52:15;13.88;;;10.82;;
49800;SDS011;35698;50.232;30.540;2022-08-05T00:53:20;16.49;;;10.92;;
49800;SDS011;35698;50.232;30.540;2022-08-05T00:54:43;15.64;;;10.58;;
49800;SDS011;35698;50.232;30.540;2022-08-05T00:55:54;21.92;;;11.14;;
49800;SDS011;35698;50.232;30.540;2022-08-05T00:56:57;15.78;;;11.58;;
49800;SDS011;35698;50.232;30.540;2022-08-05T00:58:19;14.18;;;10.07;;
49800;SDS011;35698;50.232;30.540;2022-08-05T00:59:22;13.39;;;11.25;;
49800;SDS011;35698;50.232;30.540;2022-08-05T01:00:27;16.62;;;11.94;;
49800;SDS011;35698;50.232;30.540;2022-08-05T01:01:45;18.74;;;12.21;;
49800;SDS011;35698;50.232;30.540;2022-08-05T01:02:51;16.98;;;11.41;;
49800;SDS011;35698;50.232;30.540;2022-08-05T01:04:12;15.36;;;11.46;;
49800;SDS011;35698;50.232;30.540;2022-08-05T01:05:18;14.43;;;10.74;;
49800;SDS011;35698;50.232;30.540;2022-08-05T01:06:29;20.94;;;11.84;;
49800;SDS011;35698;50.232;30.540;2022-08-05T01:07:34;16.82;;;10.74;;
49800;SDS011;35698;50.232;30.540;2022-08-05T01:08:56;14.53;;;10.88;;
49800;SDS011;35698;50.232;30.540;2022-08-05T01:10:07;13.83;;;10.72;;
49800;SDS011;35698;50.232;30.540;2022-08-05T01:11:20;17.76;;;10.43;;
49800;SDS011;35698;50.232;30.540;2022-08-05T01:12:47;15.21;;;10.57;;
49800;SDS011;35698;50.232;30.540;2022-08-05T01:15:11;13.81;;;10.86;;
49800;SDS011;35698;50.232;30.540;2022-08-05T01:18:10;16.86;;;11.73;;
49800;SDS011;35698;50.232;30.540;2022-08-05T01:25:18;14.89;;;11.06;;
49800;SDS011;35698;50.232;30.540;2022-08-05T01:29:36;20.13;;;11.77;;
49800;SDS011;35698;50.232;30.540;2022-08-05T01:32:46;13.92;;;11.71;;
49800;SDS011;35698;50.232;30.540;2022-08-05T01:33:55;15.18;;;10.62;;
49800;SDS011;35698;50.232;30.540;2022-08-05T01:35:18;13.15;;;10.78;;
49800;SDS011;35698;50.232;30.540;2022-08-05T01:36:34;15.20;;;10.99;;
49800;SDS011;35698;50.232;30.540;2022-08-05T01:37:46;13.72;;;10.85;;
49800;SDS011;35698;50.232;30.540;2022-08-05T01:39:15;16.45;;;11.52;;
49800;SDS011;35698;50.232;30.540;2022-08-05T01:40:25;12.96;;;11.06;;
49800;SDS011;35698;50.232;30.540;2022-08-05T01:41:38;16.66;;;11.03;;
49800;SDS011;35698;50.232;30.540;2022-08-05T01:42:46;15.25;;;11.21;;
49800;SDS011;35698;50.232;30.540;2022-08-05T01:44:11;18.74;;;11.81;;
49800;SDS011;35698;50.232;30.540;2022-08-05T01:45:23;16.84;;;10.86;;
49800;SDS011;35698;50.232;30.540;2022-08-05T01:46:31;14.83;;;10.56;;
49800;SDS011;35698;50.232;30.540;2022-08-05T01:47:54;15.12;;;10.97;;
49800;SDS011;35698;50.232;30.540;2022-08-05T01:49:09;14.23;;;10.14;;
49800;SDS011;35698;50.232;30.540;2022-08-05T01:50:18;16.17;;;10.43;;
49800;SDS011;35698;50.232;30.540;2022-08-05T01:51:42;13.01;;;9.91;;
49800;SDS011;35698;50.232;30.540;2022-08-05T01:52:48;14.18;;;10.18;;
49800;SDS011;35698;50.232;30.540;2022-08-05T01:54:01;13.38;;;10.89;;
49800;SDS011;35698;50.232;30.540;2022-08-05T01:55:10;13.76;;;9.88;;
49800;SDS011;35698;50.232;30.540;2022-08-05T01:56:34;17.41;;;10.21;;
49800;SDS011;35698;50.232;30.540;2022-08-05T01:57:42;16.89;;;10.84;;
49800;SDS011;35698;50.232;30.540;2022-08-05T01:58:49;18.84;;;10.76;;
49800;SDS011;35698;50.232;30.540;2022-08-05T01:59:57;16.44;;;11.27;;
49800;SDS011;35698;50.232;30.540;2022-08-05T02:01:10;13.79;;;10.87;;
49800;SDS011;35698;50.232;30.540;2022-08-05T02:02:16;17.72;;;11.36;;
49800;SDS011;35698;50.232;30.540;2022-08-05T02:03:42;15.83;;;10.71;;
49800;SDS011;35698;50.232;30.540;2022-08-05T02:04:48;12.42;;;10.77;;
49800;SDS011;35698;50.232;30.540;2022-08-05T02:06:08;13.72;;;10.35;;
49800;SDS011;35698;50.232;30.540;2022-08-05T02:07:14;17.17;;;11.32;;
49800;SDS011;35698;50.232;30.540;2022-08-05T02:08:36;14.35;;;9.77;;
49800;SDS011;35698;50.232;30.540;2022-08-05T02:09:55;13.86;;;9.91;;
49800;SDS011;35698;50.232;30.540;2022-08-05T02:11:07;16.73;;;10.00;;
49800;SDS011;35698;50.232;30.540;2022-08-05T02:14:12;17.23;;;10.37;;
49800;SDS011;35698;50.232;30.540;2022-08-05T02:15:33;11.36;;;10.02;;
49800;SDS011;35698;50.232;30.540;2022-08-05T02:16:49;16.34;;;10.61;;
49800;SDS011;35698;50.232;30.540;2022-08-05T02:18:30;16.09;;;10.68;;
49800;SDS011;35698;50.232;30.540;2022-08-05T02:20:58;16.05;;;10.40;;
49800;SDS011;35698;50.232;30.540;2022-08-05T02:22:08;13.60;;;9.88;;
49800;SDS011;35698;50.232;30.540;2022-08-05T02:23:36;17.84;;;10.37;;
49800;SDS011;35698;50.232;30.540;2022-08-05T02:24:50;17.82;;;10.01;;
49800;SDS011;35698;50.232;30.540;2022-08-05T02:25:56;16.51;;;10.58;;
49800;SDS011;35698;50.232;30.540;2022-08-05T02:27:20;13.14;;;10.26;;
49800;SDS011;35698;50.232;30.540;2022-08-05T02:28:33;12.98;;;9.88;;
49800;SDS011;35698;50.232;30.540;2022-08-05T02:29:42;13.38;;;10.29;;
49800;SDS011;35698;50.232;30.540;2022-08-05T02:31:07;12.53;;;9.68;;
49800;SDS011;35698;50.232;30.540;2022-08-05T02:32:20;12.72;;;9.96;;
49800;SDS011;35698;50.232;30.540;2022-08-05T02:33:27;17.99;;;9.83;;
49800;SDS011;35698;50.232;30.540;2022-08-05T02:34:51;12.53;;;10.76;;
49800;SDS011;35698;50.232;30.540;2022-08-05T02:36:07;16.54;;;9.76;;
49800;SDS011;35698;50.232;30.540;2022-08-05T02:37:15;12.35;;;9.97;;
49800;SDS011;35698;50.232;30.540;2022-08-05T02:39:41;14.72;;;9.91;;
49800;SDS011;35698;50.232;30.540;2022-08-05T02:40:53;16.07;;;10.21;;
49800;SDS011;35698;50.232;30.540;2022-08-05T02:42:01;15.18;;;10.28;;
49800;SDS011;35698;50.232;30.540;2022-08-05T02:43:23;13.41;;;10.90;;
49800;SDS011;35698;50.232;30.540;2022-08-05T02:44:36;13.38;;;10.82;;
49800;SDS011;35698;50.232;30.540;2022-08-05T02:45:41;15.24;;;9.79;;
49800;SDS011;35698;50.232;30.540;2022-08-05T02:47:04;15.18;;;9.82;;
49800;SDS011;35698;50.232;30.540;2022-08-05T02:48:12;14.71;;;10.19;;
49800;SDS011;35698;50.232;30.540;2022-08-05T02:49:19;12.94;;;9.77;;
49800;SDS011;35698;50.232;30.540;2022-08-05T02:50:25;11.78;;;10.55;;
49800;SDS011;35698;50.232;30.540;2022-08-05T02:51:29;13.87;;;10.46;;
49800;SDS011;35698;50.232;30.540;2022-08-05T02:52:36;12.10;;;9.86;;
49800;SDS011;35698;50.232;30.540;2022-08-05T02:53:41;15.13;;;9.47;;
49800;SDS011;35698;50.232;30.540;2022-08-05T02:54:45;18.52;;;10.51;;
49800;SDS011;35698;50.232;30.540;2022-08-05T02:55:57;16.68;;;11.33;;
49800;SDS011;35698;50.232;30.540;2022-08-05T02:58:45;12.63;;;10.87;;
49800;SDS011;35698;50.232;30.540;2022-08-05T02:59:53;12.32;;;10.92;;
49800;SDS011;35698;50.232;30.540;2022-08-05T03:00:58;12.81;;;10.95;;
49800;SDS011;35698;50.232;30.540;2022-08-05T03:02:04;14.19;;;12.25;;
49800;SDS011;35698;50.232;30.540;2022-08-05T03:03:18;14.37;;;11.53;;
49800;SDS011;35698;50.232;30.540;2022-08-05T03:04:26;12.93;;;11.62;;
49800;SDS011;35698;50.232;30.540;2022-08-05T03:05:49;14.24;;;11.68;;
49800;SDS011;35698;50.232;30.540;2022-08-05T03:06:55;17.17;;;10.68;;
49800;SDS011;35698;50.232;30.540;2022-08-05T03:08:02;13.89;;;10.51;;
49800;SDS011;35698;50.232;30.540;2022-08-05T03:09:14;12.81;;;11.08;;
49800;SDS011;35698;50.232;30.540;2022-08-05T03:12:05;15.84;;;10.79;;
49800;SDS011;35698;50.232;30.540;2022-08-05T03:13:11;14.07;;;11.07;;
49800;SDS011;35698;50.232;30.540;2022-08-05T03:14:25;13.29;;;11.25;;
49800;SDS011;35698;50.232;30.540;2022-08-05T03:15:30;13.46;;;10.91;;
49800;SDS011;35698;50.232;30.540;2022-08-05T03:16:51;14.59;;;11.16;;
49800;SDS011;35698;50.232;30.540;2022-08-05T03:18:03;14.63;;;11.58;;
49800;SDS011;35698;50.232;30.540;2022-08-05T03:19:08;12.77;;;10.99;;
49800;SDS011;35698;50.232;30.540;2022-08-05T03:20:30;14.82;;;11.42;;
49800;SDS011;35698;50.232;30.540;2022-08-05T03:21:33;15.31;;;11.28;;
49800;SDS011;35698;50.232;30.540;2022-08-05T03:22:47;11.51;;;10.44;;
49800;SDS011;35698;50.232;30.540;2022-08-05T03:23:53;13.30;;;11.67;;
49800;SDS011;35698;50.232;30.540;2022-08-05T03:25:15;12.93;;;11.43;;
49800;SDS011;35698;50.232;30.540;2022-08-05T03:26:28;17.39;;;12.61;;
49800;SDS011;35698;50.232;30.540;2022-08-05T03:27:34;13.06;;;11.76;;
49800;SDS011;35698;50.232;30.540;2022-08-05T03:28:55;15.92;;;12.79;;
49800;SDS011;35698;50.232;30.540;2022-08-05T03:30:07;14.61;;;12.67;;
49800;SDS011;35698;50.232;30.540;2022-08-05T03:31:12;14.96;;;12.66;;
49800;SDS011;35698;50.232;30.540;2022-08-05T03:32:34;16.77;;;12.95;;
49800;SDS011;35698;50.232;30.540;2022-08-05T03:33:45;13.08;;;11.72;;
49800;SDS011;35698;50.232;30.540;2022-08-05T03:34:51;23.31;;;13.67;;
49800;SDS011;35698;50.232;30.540;2022-08-05T03:36:14;15.28;;;13.42;;
49800;SDS011;35698;50.232;30.540;2022-08-05T03:37:29;14.39;;;12.73;;
49800;SDS011;35698;50.232;30.540;2022-08-05T03:38:35;15.16;;;12.86;;
49800;SDS011;35698;50.232;30.540;2022-08-05T03:40:01;17.08;;;13.00;;
49800;SDS011;35698;50.232;30.540;2022-08-05T03:41:14;13.99;;;12.54;;
49800;SDS011;35698;50.232;30.540;2022-08-05T03:42:18;15.06;;;12.69;;
49800;SDS011;35698;50.232;30.540;2022-08-05T03:43:40;15.16;;;13.21;;
49800;SDS011;35698;50.232;30.540;2022-08-05T03:44:51;15.73;;;13.02;;
49800;SDS011;35698;50.232;30.540;2022-08-05T03:45:55;13.98;;;12.56;;
49800;SDS011;35698;50.232;30.540;2022-08-05T03:47:16;16.76;;;13.67;;
49800;SDS011;35698;50.232;30.540;2022-08-05T03:48:28;15.19;;;13.61;;
49800;SDS011;35698;50.232;30.540;2022-08-05T03:49:32;15.17;;;13.51;;
49800;SDS011;35698;50.232;30.540;2022-08-05T03:51:07;15.24;;;13.62;;
49800;SDS011;35698;50.232;30.540;2022-08-05T03:52:31;16.35;;;14.73;;
49800;SDS011;35698;50.232;30.540;2022-08-05T03:53:40;16.72;;;14.14;;
49800;SDS011;35698;50.232;30.540;2022-08-05T03:55:05;14.96;;;13.36;;
49800;SDS011;35698;50.232;30.540;2022-08-05T03:57:44;15.62;;;13.96;;
49800;SDS011;35698;50.232;30.540;2022-08-05T03:59:08;16.71;;;13.92;;
49800;SDS011;35698;50.232;30.540;2022-08-05T04:00:22;16.32;;;14.25;;
49800;SDS011;35698;50.232;30.540;2022-08-05T04:01:29;15.96;;;14.11;;
49800;SDS011;35698;50.232;30.540;2022-08-05T04:02:53;17.64;;;14.10;;
49800;SDS011;35698;50.232;30.540;2022-08-05T04:03:59;15.84;;;14.20;;
49800;SDS011;35698;50.232;30.540;2022-08-05T04:05:07;20.82;;;15.88;;
49800;SDS011;35698;50.232;30.540;2022-08-05T04:06:19;17.48;;;15.37;;
49800;SDS011;35698;50.232;30.540;2022-08-05T04:07:25;16.77;;;14.99;;
49800;SDS011;35698;50.232;30.540;2022-08-05T04:08:48;22.97;;;15.24;;
49800;SDS011;35698;50.232;30.540;2022-08-05T04:10:01;21.86;;;15.91;;
49800;SDS011;35698;50.232;30.540;2022-08-05T04:11:05;17.19;;;15.42;;
49800;SDS011;35698;50.232;30.540;2022-08-05T04:12:28;17.33;;;14.45;;
49800;SDS011;35698;50.232;30.540;2022-08-05T04:13:39;18.16;;;15.21;;
49800;SDS011;35698;50.232;30.540;2022-08-05T04:14:45;18.94;;;15.62;;
49800;SDS011;35698;50.232;30.540;2022-08-05T04:16:08;17.59;;;15.78;;
49800;SDS011;35698;50.232;30.540;2022-08-05T04:17:13;17.00;;;15.36;;
49800;SDS011;35698;50.232;30.540;2022-08-05T04:18:25;19.49;;;14.74;;
49800;SDS011;35698;50.232;30.540;2022-08-05T04:19:28;21.82;;;15.34;;
49800;SDS011;35698;50.232;30.540;2022-08-05T04:20:54;18.74;;;15.07;;
49800;SDS011;35698;50.232;30.540;2022-08-05T04:21:58;17.17;;;15.06;;
49800;SDS011;35698;50.232;30.540;2022-08-05T04:46:25;19.77;;;15.62;;
49800;SDS011;35698;50.232;30.540;2022-08-05T04:47:31;18.34;;;14.77;;
49800;SDS011;35698;50.232;30.540;2022-08-05T04:48:52;17.13;;;14.23;;
49800;SDS011;35698;50.232;30.540;2022-08-05T04:49:55;17.55;;;14.17;;
49800;SDS011;35698;50.232;30.540;2022-08-05T04:51:00;17.53;;;14.25;;
49800;SDS011;35698;50.232;30.540;2022-08-05T04:52:06;15.60;;;13.63;;
49800;SDS011;35698;50.232;30.540;2022-08-05T04:53:11;17.29;;;13.86;;
49800;SDS011;35698;50.232;30.540;2022-08-05T04:54:16;17.68;;;14.54;;
49800;SDS011;35698;50.232;30.540;2022-08-05T04:55:20;18.62;;;14.43;;
49800;SDS011;35698;50.232;30.540;2022-08-05T04:56:34;24.73;;;14.24;;
49800;SDS011;35698;50.232;30.540;2022-08-05T04:57:40;16.71;;;14.53;;
49800;SDS011;35698;50.232;30.540;2022-08-05T04:59:03;15.42;;;13.76;;
49800;SDS011;35698;50.232;30.540;2022-08-05T05:00:15;15.01;;;13.28;;
49800;SDS011;35698;50.232;30.540;2022-08-05T05:01:19;15.26;;;13.74;;
49800;SDS011;35698;50.232;30.540;2022-08-05T05:02:41;17.06;;;13.74;;
49800;SDS011;35698;50.232;30.540;2022-08-05T05:03:52;20.21;;;14.60;;
49800;SDS011;35698;50.232;30.540;2022-08-05T05:04:55;19.55;;;13.24;;
49800;SDS011;35698;50.232;30.540;2022-08-05T05:06:17;18.07;;;13.62;;
49800;SDS011;35698;50.232;30.540;2022-08-05T05:07:28;17.34;;;13.35;;
49800;SDS011;35698;50.232;30.540;2022-08-05T05:08:35;17.04;;;14.38;;
49800;SDS011;35698;50.232;30.540;2022-08-05T05:09:57;15.63;;;12.63;;
49800;SDS011;35698;50.232;30.540;2022-08-05T05:11:00;20.30;;;14.01;;
49800;SDS011;35698;50.232;30.540;2022-08-05T05:12:04;17.27;;;15.16;;
49800;SDS011;35698;50.232;30.540;2022-08-05T05:13:15;16.16;;;13.82;;
49800;SDS011;35698;50.232;30.540;2022-08-05T05:14:22;15.71;;;14.02;;
49800;SDS011;35698;50.232;30.540;2022-08-05T05:15:44;23.58;;;20.13;;
49800;SDS011;35698;50.232;30.540;2022-08-05T05:16:55;28.34;;;23.86;;
49800;SDS011;35698;50.232;30.540;2022-08-05T05:18:00;33.39;;;25.92;;
49800;SDS011;35698;50.232;30.540;2022-08-05T05:19:22;20.90;;;15.39;;
49800;SDS011;35698;50.232;30.540;2022-08-05T05:20:27;18.61;;;14.23;;
49800;SDS011;35698;50.232;30.540;2022-08-05T05:21:31;18.28;;;15.51;;
49800;SDS011;35698;50.232;30.540;2022-08-05T05:22:36;16.81;;;14.54;;
49800;SDS011;35698;50.232;30.540;2022-08-05T05:23:42;18.56;;;15.28;;
49800;SDS011;35698;50.232;30.540;2022-08-05T05:24:53;21.39;;;15.59;;
49800;SDS011;35698;50.232;30.540;2022-08-05T05:26:00;19.11;;;15.26;;
49800;SDS011;35698;50.232;30.540;2022-08-05T05:27:21;18.13;;;15.05;;
49800;SDS011;35698;50.232;30.540;2022-08-05T05:28:38;17.21;;;15.36;;
49800;SDS011;35698;50.232;30.540;2022-08-05T05:29:43;20.06;;;15.86;;
49800;SDS011;35698;50.232;30.540;2022-08-05T05:31:05;18.18;;;16.06;;
49800;SDS011;35698;50.232;30.540;2022-08-05T05:32:10;43.39;;;36.43;;
49800;SDS011;35698;50.232;30.540;2022-08-05T05:33:22;33.88;;;28.69;;
49800;SDS011;35698;50.232;30.540;2022-08-05T05:34:26;42.26;;;33.29;;
49800;SDS011;35698;50.232;30.540;2022-08-05T05:35:48;23.57;;;19.96;;
49800;SDS011;35698;50.232;30.540;2022-08-05T05:36:59;21.41;;;18.19;;
49800;SDS011;35698;50.232;30.540;2022-08-05T05:38:03;23.29;;;18.20;;
49800;SDS011;35698;50.232;30.540;2022-08-05T05:39:25;22.77;;;17.78;;
49800;SDS011;35698;50.232;30.540;2022-08-05T05:40:36;21.85;;;18.43;;
49800;SDS011;35698;50.232;30.540;2022-08-05T05:41:40;20.31;;;18.13;;
49800;SDS011;35698;50.232;30.540;2022-08-05T05:43:02;23.52;;;18.13;;
49800;SDS011;35698;50.232;30.540;2022-08-05T05:44:13;19.93;;;17.87;;
49800;SDS011;35698;50.232;30.540;2022-08-05T05:45:19;20.04;;;17.57;;
49800;SDS011;35698;50.232;30.540;2022-08-05T05:46:41;21.86;;;17.66;;
49800;SDS011;35698;50.232;30.540;2022-08-05T05:47:52;22.36;;;18.63;;
49800;SDS011;35698;50.232;30.540;2022-08-05T05:48:57;21.99;;;18.37;;
49800;SDS011;35698;50.232;30.540;2022-08-05T05:50:21;28.79;;;23.16;;
49800;SDS011;35698;50.232;30.540;2022-08-05T05:51:32;24.07;;;17.91;;
49800;SDS011;35698;50.232;30.540;2022-08-05T05:52:37;21.26;;;18.23;;
49800;SDS011;35698;50.232;30.540;2022-08-05T05:53:59;23.24;;;18.62;;
49800;SDS011;35698;50.232;30.540;2022-08-05T05:55:04;21.49;;;19.21;;
49800;SDS011;35698;50.232;30.540;2022-08-05T05:56:11;33.77;;;28.49;;
49800;SDS011;35698;50.232;30.540;2022-08-05T05:57:22;33.05;;;27.49;;
49800;SDS011;35698;50.232;30.540;2022-08-05T05:58:27;29.56;;;22.20;;
49800;SDS011;35698;50.232;30.540;2022-08-05T05:59:48;25.22;;;21.96;;
49800;SDS011;35698;50.232;30.540;2022-08-05T06:00:59;32.09;;;28.11;;
49800;SDS011;35698;50.232;30.540;2022-08-05T06:02:05;32.79;;;24.90;;
49800;SDS011;35698;50.232;30.540;2022-08-05T06:03:28;26.97;;;22.33;;
49800;SDS011;35698;50.232;30.540;2022-08-05T06:04:40;27.02;;;22.98;;
49800;SDS011;35698;50.232;30.540;2022-08-05T06:05:56;32.87;;;24.62;;
49800;SDS011;35698;50.232;30.540;2022-08-05T06:07:18;34.73;;;27.24;;
49800;SDS011;35698;50.232;30.540;2022-08-05T06:08:29;35.46;;;29.42;;
49800;SDS011;35698;50.232;30.540;2022-08-05T06:09:34;34.15;;;27.42;;
49800;SDS011;35698;50.232;30.540;2022-08-05T06:10:56;43.31;;;35.86;;
49800;SDS011;35698;50.232;30.540;2022-08-05T06:12:07;32.03;;;26.46;;
49800;SDS011;35698;50.232;30.540;2022-08-05T06:13:13;33.08;;;27.26;;
49800;SDS011;35698;50.232;30.540;2022-08-05T06:14:35;31.72;;;25.32;;
49800;SDS011;35698;50.232;30.540;2022-08-05T06:15:46;23.13;;;20.47;;
49800;SDS011;35698;50.232;30.540;2022-08-05T06:16:52;22.82;;;20.02;;
49800;SDS011;35698;50.232;30.540;2022-08-05T06:18:14;21.55;;;18.51;;
49800;SDS011;35698;50.232;30.540;2022-08-05T06:19:26;19.67;;;17.42;;
49800;SDS011;35698;50.232;30.540;2022-08-05T06:20:32;23.79;;;20.29;;
49800;SDS011;35698;50.232;30.540;2022-08-05T06:21:54;20.90;;;17.29;;
49800;SDS011;35698;50.232;30.540;2022-08-05T06:23:05;19.39;;;15.86;;
49800;SDS011;35698;50.232;30.540;2022-08-05T06:24:09;17.73;;;15.49;;
49800;SDS011;35698;50.232;30.540;2022-08-05T06:25:31;17.15;;;15.39;;
49800;SDS011;35698;50.232;30.540;2022-08-05T06:26:42;23.04;;;20.47;;
49800;SDS011;35698;50.232;30.540;2022-08-05T06:27:47;20.97;;;17.52;;
49800;SDS011;35698;50.232;30.540;2022-08-05T06:29:09;20.54;;;17.31;;
49800;SDS011;35698;50.232;30.540;2022-08-05T06:30:14;23.96;;;20.78;;
49800;SDS011;35698;50.232;30.540;2022-08-05T06:31:25;20.01;;;17.37;;
49800;SDS011;35698;50.232;30.540;2022-08-05T06:32:31;20.48;;;17.94;;
49800;SDS011;35698;50.232;30.540;2022-08-05T06:33:52;21.07;;;17.17;;
49800;SDS011;35698;50.232;30.540;2022-08-05T06:35:04;19.51;;;17.54;;
49800;SDS011;35698;50.232;30.540;2022-08-05T06:36:11;20.98;;;18.12;;
49800;SDS011;35698;50.232;30.540;2022-08-05T06:37:32;17.64;;;15.82;;
49800;SDS011;35698;50.232;30.540;2022-08-05T06:38:43;20.68;;;17.14;;
49800;SDS011;35698;50.232;30.540;2022-08-05T06:39:49;26.68;;;19.62;;
49800;SDS011;35698;50.232;30.540;2022-08-05T06:41:11;18.75;;;16.27;;
49800;SDS011;35698;50.232;30.540;2022-08-05T06:42:22;18.78;;;16.87;;
49800;SDS011;35698;50.232;30.540;2022-08-05T06:43:28;18.66;;;16.61;;
49800;SDS011;35698;50.232;30.540;2022-08-05T06:44:51;18.19;;;15.96;;
49800;SDS011;35698;50.232;30.540;2022-08-05T06:46:02;20.48;;;16.19;;
49800;SDS011;35698;50.232;30.540;2022-08-05T06:47:08;18.57;;;16.27;;
49800;SDS011;35698;50.232;30.540;2022-08-05T06:48:30;18.66;;;16.32;;
49800;SDS011;35698;50.232;30.540;2022-08-05T06:49:35;18.05;;;15.48;;
49800;SDS011;35698;50.232;30.540;2022-08-05T06:50:47;20.29;;;16.18;;
49800;SDS011;35698;50.232;30.540;2022-08-05T06:51:52;21.19;;;17.23;;
49800;SDS011;35698;50.232;30.540;2022-08-05T06:53:14;68.53;;;54.19;;
49800;SDS011;35698;50.232;30.540;2022-08-05T06:54:25;19.19;;;16.57;;
49800;SDS011;35698;50.232;30.540;2022-08-05T06:55:28;18.46;;;16.39;;
49800;SDS011;35698;50.232;30.540;2022-08-05T06:56:50;26.11;;;19.31;;
49800;SDS011;35698;50.232;30.540;2022-08-05T06:58:02;21.87;;;19.59;;
49800;SDS011;35698;50.232;30.540;2022-08-05T06:59:07;17.61;;;15.80;;
49800;SDS011;35698;50.232;30.540;2022-08-05T07:01:41;38.98;;;32.17;;
49800;SDS011;35698;50.232;30.540;2022-08-05T07:02:47;18.00;;;15.84;;
49800;SDS011;35698;50.232;30.540;2022-08-05T07:04:09;20.94;;;18.59;;
49800;SDS011;35698;50.232;30.540;2022-08-05T07:05:20;25.22;;;21.83;;
49800;SDS011;35698;50.232;30.540;2022-08-05T07:06:26;24.53;;;22.04;;
49800;SDS011;35698;50.232;30.540;2022-08-05T07:07:48;22.77;;;20.24;;
49800;SDS011;35698;50.232;30.540;2022-08-05T07:08:59;18.33;;;15.52;;
49800;SDS011;35698;50.232;30.540;2022-08-05T07:10:06;16.48;;;14.01;;
49800;SDS011;35698;50.232;30.540;2022-08-05T07:11:28;26.46;;;21.77;;
49800;SDS011;35698;50.232;30.540;2022-08-05T07:12:40;40.09;;;32.23;;
49800;SDS011;35698;50.232;30.540;2022-08-05T07:13:46;16.80;;;14.72;;
49800;SDS011;35698;50.232;30.540;2022-08-05T07:15:08;16.26;;;14.23;;
49800;SDS011;35698;50.232;30.540;2022-08-05T07:16:12;16.68;;;14.19;;
49800;SDS011;35698;50.232;30.540;2022-08-05T07:17:17;20.08;;;13.98;;
49800;SDS011;35698;50.232;30.540;2022-08-05T07:18:31;18.83;;;14.27;;
49800;SDS011;35698;50.232;30.540;2022-08-05T07:19:35;14.60;;;13.08;;
49800;SDS011;35698;50.232;30.540;2022-08-05T07:20:57;15.69;;;14.09;;
49800;SDS011;35698;50.232;30.540;2022-08-05T07:22:08;14.23;;;12.56;;
49800;SDS011;35698;50.232;30.540;2022-08-05T07:23:11;15.14;;;13.37;;
49800;SDS011;35698;50.232;30.540;2022-08-05T07:24:32;15.91;;;14.16;;
49800;SDS011;35698;50.232;30.540;2022-08-05T07:25:44;15.87;;;14.16;;
49800;SDS011;35698;50.232;30.540;2022-08-05T07:26:49;15.82;;;14.26;;
49800;SDS011;35698;50.232;30.540;2022-08-05T07:28:11;20.08;;;14.29;;
49800;SDS011;35698;50.232;30.540;2022-08-05T07:29:22;16.84;;;14.55;;
49800;SDS011;35698;50.232;30.540;2022-08-05T07:30:31;16.64;;;14.97;;
49800;SDS011;35698;50.232;30.540;2022-08-05T07:31:54;15.67;;;14.03;;
49800;SDS011;35698;50.232;30.540;2022-08-05T07:34:20;17.66;;;15.24;;
49800;SDS011;35698;50.232;30.540;2022-08-05T07:35:25;19.17;;;15.37;;
49800;SDS011;35698;50.232;30.540;2022-08-05T07:36:47;17.04;;;14.95;;
49800;SDS011;35698;50.232;30.540;2022-08-05T07:37:58;17.33;;;15.56;;
49800;SDS011;35698;50.232;30.540;2022-08-05T07:39:03;17.17;;;15.37;;
49800;SDS011;35698;50.232;30.540;2022-08-05T07:40:26;19.26;;;16.37;;
49800;SDS011;35698;50.232;30.540;2022-08-05T07:41:37;19.91;;;15.96;;
49800;SDS011;35698;50.232;30.540;2022-08-05T07:42:45;20.79;;;17.96;;
49800;SDS011;35698;50.232;30.540;2022-08-05T07:44:08;23.38;;;20.92;;
49800;SDS011;35698;50.232;30.540;2022-08-05T07:45:20;27.41;;;22.10;;
49800;SDS011;35698;50.232;30.540;2022-08-05T07:46:28;21.29;;;16.56;;
49800;SDS011;35698;50.232;30.540;2022-08-05T07:47:51;17.69;;;15.57;;
49800;SDS011;35698;50.232;30.540;2022-08-05T07:49:03;17.41;;;15.44;;